Olos — FGG8649 — position and weather

sailwx.info

Track history (hours):
 
Tides and Currents Weather Stations Pressure Air Temp Water Temp Dewpoint Dewpoint Depression Visibility Wind Speed Wind Dir Waves Ship Positions

Olos

Last reported at 2017-Oct-18 12:57 UTC. Time now 2017-Nov-18 04:44 UTC.
Position N 40°39' E 014°10'.
Warning: this ship's position is 30 days out of date.

Length 17 m.

Type: Sailing vessel. MMSI: 227056940.

Date/timePositionNaut miles runAvg speedWind from/ knotsBaromVisibWave heightAir tempDewpointWater temp
2017-Oct-18 12:57N 40°39' E 014°10'161 6.9
2017-Oct-17 13:26N 38°12' E 015°38'349 7.2
2017-Oct-15 13:13N 37°55' E 023°01'0 0.1
2017-Oct-15 10:03N 37°55' E 023°01'0 3.4
2017-Oct-15 09:59N 37°55' E 023°01'4 7.6
2017-Oct-15 09:30N 37°54' E 023°06'4 7.9
2017-Oct-15 08:57N 37°53' E 023°11'7 8.1
2017-Oct-15 08:07N 37°53' E 023°19'2 8.5
2017-Oct-15 07:52N 37°52' E 023°22'3 8.3
2017-Oct-15 07:30N 37°52' E 023°26'4 8.4
2017-Oct-15 07:00N 37°53' E 023°31'4 8.8
2017-Oct-15 06:30N 37°55' E 023°36'3 5.3
2017-Oct-15 05:59N 37°56' E 023°39'0 0.0
2017-Oct-15 05:30N 37°56' E 023°39'0 0.0
2017-Oct-15 04:57N 37°56' E 023°39'0 0.0
2017-Oct-15 04:30N 37°56' E 023°39'0 0.0
2017-Oct-15 03:59N 37°56' E 023°39'0 0.0
2017-Oct-15 03:29N 37°56' E 023°39'0 0.0
2017-Oct-15 02:59N 37°56' E 023°39'0 0.0
2017-Oct-15 02:29N 37°56' E 023°39'0 0.0
2017-Oct-15 01:59N 37°56' E 023°39'0 0.0
2017-Oct-15 01:29N 37°56' E 023°39'0 0.0
2017-Oct-15 01:00N 37°56' E 023°39'0 0.0
2017-Oct-15 00:29N 37°56' E 023°39'0 0.0
2017-Oct-14 23:59N 37°56' E 023°39'0 0.0
2017-Oct-14 23:29N 37°56' E 023°39'0 0.0
2017-Oct-14 23:00N 37°56' E 023°39'0 0.0
2017-Oct-14 22:29N 37°56' E 023°39'0 0.0
2017-Oct-14 21:59N 37°56' E 023°39'0 0.0
2017-Oct-14 21:30N 37°56' E 023°39'0 0.0
2017-Oct-14 20:59N 37°56' E 023°39'0 0.0
2017-Oct-14 20:30N 37°56' E 023°39'0 0.0
2017-Oct-14 20:00N 37°56' E 023°39'0 0.0
2017-Oct-14 19:29N 37°56' E 023°39'0 0.0
2017-Oct-14 18:59N 37°56' E 023°39'0 0.0
2017-Oct-14 18:30N 37°56' E 023°39'0 0.0
2017-Oct-14 18:00N 37°56' E 023°39'0 0.0
2017-Oct-14 17:30N 37°56' E 023°39'0 0.0
2017-Oct-14 17:00N 37°56' E 023°39'0 0.0
2017-Oct-14 16:29N 37°56' E 023°39'0 0.0
2017-Oct-14 15:59N 37°56' E 023°39'0 0.0
2017-Oct-14 15:29N 37°56' E 023°39'0 0.0
2017-Oct-14 15:00N 37°56' E 023°39'0 0.0
2017-Oct-14 14:29N 37°56' E 023°39'  
Track history (hours):
 
Tides and Currents Weather Stations Pressure Air Temp Water Temp Dewpoint Dewpoint Depression Visibility Wind Speed Wind Dir Waves Ship Positions

Olos

Last reported at 2017-Oct-18 12:57 UTC. Time now 2017-Nov-18 04:44 UTC.
Position N 40°39' E 014°10'.
Warning: this ship's position is 30 days out of date.

Length 17 m.

Type: Sailing vessel. MMSI: 227056940.

Date/timePositionNaut miles runAvg speedWind from/ knotsBaromVisibWave heightAir tempDewpointWater temp
2017-Oct-18 12:57N 40°39' E 014°10'161 6.9
2017-Oct-17 13:26N 38°12' E 015°38'349 7.2
2017-Oct-15 13:13N 37°55' E 023°01'0 0.1
2017-Oct-15 10:03N 37°55' E 023°01'0 3.4
2017-Oct-15 09:59N 37°55' E 023°01'4 7.6
2017-Oct-15 09:30N 37°54' E 023°06'4 7.9
2017-Oct-15 08:57N 37°53' E 023°11'7 8.1
2017-Oct-15 08:07N 37°53' E 023°19'2 8.5
2017-Oct-15 07:52N 37°52' E 023°22'3 8.3
2017-Oct-15 07:30N 37°52' E 023°26'4 8.4
2017-Oct-15 07:00N 37°53' E 023°31'4 8.8
2017-Oct-15 06:30N 37°55' E 023°36'3 5.3
2017-Oct-15 05:59N 37°56' E 023°39'0 0.0
2017-Oct-15 05:30N 37°56' E 023°39'0 0.0
2017-Oct-15 04:57N 37°56' E 023°39'0 0.0
2017-Oct-15 04:30N 37°56' E 023°39'0 0.0
2017-Oct-15 03:59N 37°56' E 023°39'0 0.0
2017-Oct-15 03:29N 37°56' E 023°39'0 0.0
2017-Oct-15 02:59N 37°56' E 023°39'0 0.0
2017-Oct-15 02:29N 37°56' E 023°39'0 0.0
2017-Oct-15 01:59N 37°56' E 023°39'0 0.0
2017-Oct-15 01:29N 37°56' E 023°39'0 0.0
2017-Oct-15 01:00N 37°56' E 023°39'0 0.0
2017-Oct-15 00:29N 37°56' E 023°39'0 0.0
2017-Oct-14 23:59N 37°56' E 023°39'0 0.0
2017-Oct-14 23:29N 37°56' E 023°39'0 0.0
2017-Oct-14 23:00N 37°56' E 023°39'0 0.0
2017-Oct-14 22:29N 37°56' E 023°39'0 0.0
2017-Oct-14 21:59N 37°56' E 023°39'0 0.0
2017-Oct-14 21:30N 37°56' E 023°39'0 0.0
2017-Oct-14 20:59N 37°56' E 023°39'0 0.0
2017-Oct-14 20:30N 37°56' E 023°39'0 0.0
2017-Oct-14 20:00N 37°56' E 023°39'0 0.0
2017-Oct-14 19:29N 37°56' E 023°39'0 0.0
2017-Oct-14 18:59N 37°56' E 023°39'0 0.0
2017-Oct-14 18:30N 37°56' E 023°39'0 0.0
2017-Oct-14 18:00N 37°56' E 023°39'0 0.0
2017-Oct-14 17:30N 37°56' E 023°39'0 0.0
2017-Oct-14 17:00N 37°56' E 023°39'0 0.0
2017-Oct-14 16:29N 37°56' E 023°39'0 0.0
2017-Oct-14 15:59N 37°56' E 023°39'0 0.0
2017-Oct-14 15:29N 37°56' E 023°39'0 0.0
2017-Oct-14 15:00N 37°56' E 023°39'0 0.0
2017-Oct-14 14:29N 37°56' E 023°39'  

Dump ship's entire track history